EmailTwitter


Surface observations / United Kingdom / EGLL (03772)

Regions: Quebec | Canada | USA | Europe | France | UK | Elsewhere
Station
Display
Info & Location for EGLL (03772) | Help decoding METAR

Weather Conditions observed on 2018/04/24 at 07:50 UTC at LONDON/HEATHROW, UK (EGLL)

Sky conditions: variable clouds.

Temperature: 13.0 Celsius.

Dewpoint: 9.0 Celsius.

Relative Humidity: 77%

Winds: Southwest at 20 km/h or 11 knots.

Mean Sea level Pressure: 101.60 kilopascals.

Horizontal visibility: 6.21 statute miles or 9.94 kilometers.

Coded METAR:

EGLL 240750Z AUTO 24011KT 9999 SCT019 13/09 Q1016=